sensor_id;sensor_type;location;lat;lon;timestamp;temperature;humidity
13585;DHT22;6863;48.402;9.994;2024-01-15T00:01:26;-2.20;98.30
13585;DHT22;6863;48.402;9.994;2024-01-15T00:03:52;-2.20;98.10
13585;DHT22;6863;48.402;9.994;2024-01-15T00:06:17;-2.10;98.20
13585;DHT22;6863;48.402;9.994;2024-01-15T00:08:43;-2.20;98.10
13585;DHT22;6863;48.402;9.994;2024-01-15T00:11:09;-2.10;98.20
13585;DHT22;6863;48.402;9.994;2024-01-15T00:13:34;-2.10;98.20
13585;DHT22;6863;48.402;9.994;2024-01-15T00:16:00;-2.00;98.20
13585;DHT22;6863;48.402;9.994;2024-01-15T00:18:25;-2.00;98.20
13585;DHT22;6863;48.402;9.994;2024-01-15T00:20:51;-2.00;98.20
13585;DHT22;6863;48.402;9.994;2024-01-15T00:23:16;-2.00;98.30
13585;DHT22;6863;48.402;9.994;2024-01-15T00:25:42;-2.10;98.30
13585;DHT22;6863;48.402;9.994;2024-01-15T00:28:08;-2.10;98.50
13585;DHT22;6863;48.402;9.994;2024-01-15T00:30:33;-2.10;98.50
13585;DHT22;6863;48.402;9.994;2024-01-15T00:32:59;-2.10;98.50
13585;DHT22;6863;48.402;9.994;2024-01-15T00:35:24;-2.10;98.50
13585;DHT22;6863;48.402;9.994;2024-01-15T00:37:50;-2.10;98.50
13585;DHT22;6863;48.402;9.994;2024-01-15T00:40:15;-2.00;98.60
13585;DHT22;6863;48.402;9.994;2024-01-15T00:42:41;-2.00;98.70
13585;DHT22;6863;48.402;9.994;2024-01-15T00:45:07;-2.00;98.30
13585;DHT22;6863;48.402;9.994;2024-01-15T00:47:34;-2.00;98.30
13585;DHT22;6863;48.402;9.994;2024-01-15T00:50:00;-2.00;98.30
13585;DHT22;6863;48.402;9.994;2024-01-15T00:52:26;-2.00;98.40
13585;DHT22;6863;48.402;9.994;2024-01-15T00:54:51;-1.90;98.40
13585;DHT22;6863;48.402;9.994;2024-01-15T00:57:17;-1.80;98.30
13585;DHT22;6863;48.402;9.994;2024-01-15T00:59:44;-1.70;98.30
13585;DHT22;6863;48.402;9.994;2024-01-15T01:02:10;-1.60;98.00
13585;DHT22;6863;48.402;9.994;2024-01-15T01:04:35;-1.50;97.90
13585;DHT22;6863;48.402;9.994;2024-01-15T01:07:01;-1.40;97.70
13585;DHT22;6863;48.402;9.994;2024-01-15T01:09:26;-1.40;97.60
13585;DHT22;6863;48.402;9.994;2024-01-15T01:11:55;-1.40;97.40
13585;DHT22;6863;48.402;9.994;2024-01-15T01:14:21;-1.40;97.50
13585;DHT22;6863;48.402;9.994;2024-01-15T01:16:46;-1.40;97.50
13585;DHT22;6863;48.402;9.994;2024-01-15T01:19:12;-1.50;97.60
13585;DHT22;6863;48.402;9.994;2024-01-15T01:21:38;-1.40;97.90
13585;DHT22;6863;48.402;9.994;2024-01-15T01:24:03;-1.40;97.80
13585;DHT22;6863;48.402;9.994;2024-01-15T01:26:29;-1.30;97.90
13585;DHT22;6863;48.402;9.994;2024-01-15T01:28:55;-1.20;97.90
13585;DHT22;6863;48.402;9.994;2024-01-15T01:31:21;-1.10;97.70
13585;DHT22;6863;48.402;9.994;2024-01-15T01:33:46;-1.10;97.40
13585;DHT22;6863;48.402;9.994;2024-01-15T01:36:12;-1.00;97.30
13585;DHT22;6863;48.402;9.994;2024-01-15T01:38:39;-1.00;97.00
13585;DHT22;6863;48.402;9.994;2024-01-15T01:41:05;-0.90;96.90
13585;DHT22;6863;48.402;9.994;2024-01-15T01:43:31;-0.80;96.90
13585;DHT22;6863;48.402;9.994;2024-01-15T01:45:57;-0.90;96.90
13585;DHT22;6863;48.402;9.994;2024-01-15T01:48:26;-1.00;97.00
13585;DHT22;6863;48.402;9.994;2024-01-15T01:50:58;-0.90;97.10
13585;DHT22;6863;48.402;9.994;2024-01-15T01:53:25;-0.90;97.00
13585;DHT22;6863;48.402;9.994;2024-01-15T01:55:51;-1.00;97.00
13585;DHT22;6863;48.402;9.994;2024-01-15T01:58:18;-0.90;97.00
13585;DHT22;6863;48.402;9.994;2024-01-15T02:00:44;-1.00;97.10
13585;DHT22;6863;48.402;9.994;2024-01-15T02:03:10;-0.90;97.10
13585;DHT22;6863;48.402;9.994;2024-01-15T02:05:37;-1.00;97.30
13585;DHT22;6863;48.402;9.994;2024-01-15T02:08:04;-1.10;97.50
13585;DHT22;6863;48.402;9.994;2024-01-15T02:10:30;-1.00;97.70
13585;DHT22;6863;48.402;9.994;2024-01-15T02:12:55;-1.10;97.80
13585;DHT22;6863;48.402;9.994;2024-01-15T02:15:21;-1.10;97.90
13585;DHT22;6863;48.402;9.994;2024-01-15T02:18:03;-1.10;97.90
13585;DHT22;6863;48.402;9.994;2024-01-15T02:20:29;-1.10;98.00
13585;DHT22;6863;48.402;9.994;2024-01-15T02:23:22;-1.20;98.10
13585;DHT22;6863;48.402;9.994;2024-01-15T02:25:47;-1.30;98.10
13585;DHT22;6863;48.402;9.994;2024-01-15T02:28:15;-1.40;98.30
13585;DHT22;6863;48.402;9.994;2024-01-15T02:30:42;-1.50;98.50
13585;DHT22;6863;48.402;9.994;2024-01-15T02:33:08;-1.50;98.70
13585;DHT22;6863;48.402;9.994;2024-01-15T02:35:35;-1.50;98.90
13585;DHT22;6863;48.402;9.994;2024-01-15T02:38:04;-1.50;99.00
13585;DHT22;6863;48.402;9.994;2024-01-15T02:40:30;-1.60;99.10
13585;DHT22;6863;48.402;9.994;2024-01-15T02:42:56;-1.60;99.00
13585;DHT22;6863;48.402;9.994;2024-01-15T02:45:22;-1.60;99.30
13585;DHT22;6863;48.402;9.994;2024-01-15T02:47:48;-1.60;99.30
13585;DHT22;6863;48.402;9.994;2024-01-15T02:50:14;-1.50;99.20
13585;DHT22;6863;48.402;9.994;2024-01-15T02:52:39;-1.50;99.10
13585;DHT22;6863;48.402;9.994;2024-01-15T02:55:05;-1.40;99.10
13585;DHT22;6863;48.402;9.994;2024-01-15T02:57:31;-1.40;99.00
13585;DHT22;6863;48.402;9.994;2024-01-15T02:59:57;-1.40;98.90
13585;DHT22;6863;48.402;9.994;2024-01-15T03:02:22;-1.40;98.90
13585;DHT22;6863;48.402;9.994;2024-01-15T03:04:48;-1.30;98.90
13585;DHT22;6863;48.402;9.994;2024-01-15T03:07:13;-1.40;98.90
13585;DHT22;6863;48.402;9.994;2024-01-15T03:09:39;-1.40;98.90
13585;DHT22;6863;48.402;9.994;2024-01-15T03:12:05;-1.40;99.00
13585;DHT22;6863;48.402;9.994;2024-01-15T03:14:31;-1.30;99.10
13585;DHT22;6863;48.402;9.994;2024-01-15T03:16:56;-1.40;99.00
13585;DHT22;6863;48.402;9.994;2024-01-15T03:19:22;-1.30;99.00
13585;DHT22;6863;48.402;9.994;2024-01-15T03:21:47;-1.30;99.00
13585;DHT22;6863;48.402;9.994;2024-01-15T03:24:13;-1.30;99.10
13585;DHT22;6863;48.402;9.994;2024-01-15T03:26:39;-1.30;99.20
13585;DHT22;6863;48.402;9.994;2024-01-15T03:29:04;-1.40;99.20
13585;DHT22;6863;48.402;9.994;2024-01-15T03:31:30;-1.40;99.40
13585;DHT22;6863;48.402;9.994;2024-01-15T03:33:56;-1.30;99.40
13585;DHT22;6863;48.402;9.994;2024-01-15T03:36:21;-1.30;99.30
13585;DHT22;6863;48.402;9.994;2024-01-15T03:38:47;-1.30;99.50
13585;DHT22;6863;48.402;9.994;2024-01-15T03:41:13;-1.30;99.50
13585;DHT22;6863;48.402;9.994;2024-01-15T03:43:38;-1.30;99.60
13585;DHT22;6863;48.402;9.994;2024-01-15T03:46:05;-1.30;99.60
13585;DHT22;6863;48.402;9.994;2024-01-15T03:48:30;-1.30;99.60
13585;DHT22;6863;48.402;9.994;2024-01-15T03:50:56;-1.30;99.70
13585;DHT22;6863;48.402;9.994;2024-01-15T03:53:22;-1.30;99.70
13585;DHT22;6863;48.402;9.994;2024-01-15T03:55:47;-1.40;99.70
13585;DHT22;6863;48.402;9.994;2024-01-15T03:58:13;-1.40;99.80
13585;DHT22;6863;48.402;9.994;2024-01-15T04:00:40;-1.40;99.80
13585;DHT22;6863;48.402;9.994;2024-01-15T04:03:06;-1.40;99.90
13585;DHT22;6863;48.402;9.994;2024-01-15T04:05:31;-1.50;99.90
13585;DHT22;6863;48.402;9.994;2024-01-15T04:07:57;-1.50;99.90
13585;DHT22;6863;48.402;9.994;2024-01-15T04:10:23;-1.50;99.90
13585;DHT22;6863;48.402;9.994;2024-01-15T04:12:48;-1.50;99.90
13585;DHT22;6863;48.402;9.994;2024-01-15T04:15:14;-1.60;99.90
13585;DHT22;6863;48.402;9.994;2024-01-15T04:17:39;-1.60;99.90
13585;DHT22;6863;48.402;9.994;2024-01-15T04:20:05;-1.70;99.90
13585;DHT22;6863;48.402;9.994;2024-01-15T04:22:32;-1.70;99.90
13585;DHT22;6863;48.402;9.994;2024-01-15T04:24:58;-1.70;99.90
13585;DHT22;6863;48.402;9.994;2024-01-15T04:27:24;-1.60;99.90
13585;DHT22;6863;48.402;9.994;2024-01-15T04:29:49;-1.60;99.90
13585;DHT22;6863;48.402;9.994;2024-01-15T04:32:15;-1.60;99.90
13585;DHT22;6863;48.402;9.994;2024-01-15T04:34:41;-1.50;99.90
13585;DHT22;6863;48.402;9.994;2024-01-15T04:37:06;-1.60;99.90
13585;DHT22;6863;48.402;9.994;2024-01-15T04:39:32;-1.50;99.90
13585;DHT22;6863;48.402;9.994;2024-01-15T04:41:58;-1.50;99.90
13585;DHT22;6863;48.402;9.994;2024-01-15T04:44:23;-1.50;99.90
13585;DHT22;6863;48.402;9.994;2024-01-15T04:46:49;-1.50;99.90
13585;DHT22;6863;48.402;9.994;2024-01-15T04:49:14;-1.40;99.90
13585;DHT22;6863;48.402;9.994;2024-01-15T04:51:40;-1.40;99.90
13585;DHT22;6863;48.402;9.994;2024-01-15T04:54:05;-1.30;99.70
13585;DHT22;6863;48.402;9.994;2024-01-15T04:56:31;-1.30;99.50
13585;DHT22;6863;48.402;9.994;2024-01-15T04:58:57;-1.30;99.30
13585;DHT22;6863;48.402;9.994;2024-01-15T05:01:22;-1.30;99.20
13585;DHT22;6863;48.402;9.994;2024-01-15T05:03:48;-1.30;99.20
13585;DHT22;6863;48.402;9.994;2024-01-15T05:06:14;-1.30;99.30
13585;DHT22;6863;48.402;9.994;2024-01-15T05:08:40;-1.30;99.20
13585;DHT22;6863;48.402;9.994;2024-01-15T05:11:05;-1.30;99.00
13585;DHT22;6863;48.402;9.994;2024-01-15T05:13:31;-1.40;98.80
13585;DHT22;6863;48.402;9.994;2024-01-15T05:15:57;-1.30;98.80
13585;DHT22;6863;48.402;9.994;2024-01-15T05:18:22;-1.30;98.80
13585;DHT22;6863;48.402;9.994;2024-01-15T05:20:48;-1.20;98.80
13585;DHT22;6863;48.402;9.994;2024-01-15T05:23:13;-1.10;98.60
13585;DHT22;6863;48.402;9.994;2024-01-15T05:25:39;-1.10;98.20
13585;DHT22;6863;48.402;9.994;2024-01-15T05:28:06;-1.00;98.00
13585;DHT22;6863;48.402;9.994;2024-01-15T05:30:32;-0.90;97.50
13585;DHT22;6863;48.402;9.994;2024-01-15T05:32:57;-0.80;97.50
13585;DHT22;6863;48.402;9.994;2024-01-15T05:35:23;-0.80;97.50
13585;DHT22;6863;48.402;9.994;2024-01-15T05:37:48;-0.90;98.00
13585;DHT22;6863;48.402;9.994;2024-01-15T05:40:14;-1.00;98.00
13585;DHT22;6863;48.402;9.994;2024-01-15T05:42:41;-0.90;98.30
13585;DHT22;6863;48.402;9.994;2024-01-15T05:45:07;-0.90;98.40
13585;DHT22;6863;48.402;9.994;2024-01-15T05:47:33;-1.00;98.60
13585;DHT22;6863;48.402;9.994;2024-01-15T05:50:00;-1.00;98.80
13585;DHT22;6863;48.402;9.994;2024-01-15T05:52:25;-1.00;99.10
13585;DHT22;6863;48.402;9.994;2024-01-15T05:54:51;-0.90;99.10
13585;DHT22;6863;48.402;9.994;2024-01-15T05:57:16;-1.00;99.20
13585;DHT22;6863;48.402;9.994;2024-01-15T05:59:44;-0.90;99.20
13585;DHT22;6863;48.402;9.994;2024-01-15T06:02:09;-0.90;99.10
13585;DHT22;6863;48.402;9.994;2024-01-15T06:04:35;-0.80;99.00
13585;DHT22;6863;48.402;9.994;2024-01-15T06:07:00;-0.80;99.40
13585;DHT22;6863;48.402;9.994;2024-01-15T06:09:26;-0.90;99.70
13585;DHT22;6863;48.402;9.994;2024-01-15T06:11:53;-0.90;99.90
13585;DHT22;6863;48.402;9.994;2024-01-15T06:14:18;-0.90;99.90
13585;DHT22;6863;48.402;9.994;2024-01-15T06:16:44;-0.90;99.90
13585;DHT22;6863;48.402;9.994;2024-01-15T06:19:09;-0.90;99.90
13585;DHT22;6863;48.402;9.994;2024-01-15T06:21:35;-0.90;99.90
13585;DHT22;6863;48.402;9.994;2024-01-15T06:24:01;-0.90;99.90
13585;DHT22;6863;48.402;9.994;2024-01-15T06:26:26;-0.80;99.90
13585;DHT22;6863;48.402;9.994;2024-01-15T06:28:52;-0.80;99.90
13585;DHT22;6863;48.402;9.994;2024-01-15T06:31:17;-0.80;99.70
13585;DHT22;6863;48.402;9.994;2024-01-15T06:33:43;-0.80;99.30
13585;DHT22;6863;48.402;9.994;2024-01-15T06:36:10;-0.70;98.50
13585;DHT22;6863;48.402;9.994;2024-01-15T06:38:36;-0.70;98.20
13585;DHT22;6863;48.402;9.994;2024-01-15T06:41:01;-0.60;98.10
13585;DHT22;6863;48.402;9.994;2024-01-15T06:43:27;-0.60;97.80
13585;DHT22;6863;48.402;9.994;2024-01-15T06:45:53;-0.60;98.00
13585;DHT22;6863;48.402;9.994;2024-01-15T06:48:18;-0.60;97.90
13585;DHT22;6863;48.402;9.994;2024-01-15T06:50:44;-0.70;98.20
13585;DHT22;6863;48.402;9.994;2024-01-15T06:53:10;-0.70;99.00
13585;DHT22;6863;48.402;9.994;2024-01-15T06:55:36;-0.80;99.40
13585;DHT22;6863;48.402;9.994;2024-01-15T06:58:01;-0.80;99.60
13585;DHT22;6863;48.402;9.994;2024-01-15T07:00:27;-0.90;99.90
13585;DHT22;6863;48.402;9.994;2024-01-15T07:02:53;-0.80;99.90
13585;DHT22;6863;48.402;9.994;2024-01-15T07:05:20;-0.80;99.90
13585;DHT22;6863;48.402;9.994;2024-01-15T07:07:46;-0.90;99.90
13585;DHT22;6863;48.402;9.994;2024-01-15T07:10:13;-0.90;99.90
13585;DHT22;6863;48.402;9.994;2024-01-15T07:12:38;-0.80;99.90
13585;DHT22;6863;48.402;9.994;2024-01-15T07:15:04;-0.90;99.90
13585;DHT22;6863;48.402;9.994;2024-01-15T07:17:33;-0.90;99.90
13585;DHT22;6863;48.402;9.994;2024-01-15T07:19:59;-0.80;99.90
13585;DHT22;6863;48.402;9.994;2024-01-15T07:22:24;-0.80;99.90
13585;DHT22;6863;48.402;9.994;2024-01-15T07:24:50;-0.80;99.90
13585;DHT22;6863;48.402;9.994;2024-01-15T07:27:15;-0.80;99.90
13585;DHT22;6863;48.402;9.994;2024-01-15T07:29:41;-0.80;99.90
13585;DHT22;6863;48.402;9.994;2024-01-15T07:32:08;-0.90;99.90
13585;DHT22;6863;48.402;9.994;2024-01-15T07:34:34;-0.80;99.90
13585;DHT22;6863;48.402;9.994;2024-01-15T07:36:59;-0.80;99.90
13585;DHT22;6863;48.402;9.994;2024-01-15T07:39:25;-0.80;99.90
13585;DHT22;6863;48.402;9.994;2024-01-15T07:41:51;-0.80;99.90
13585;DHT22;6863;48.402;9.994;2024-01-15T07:44:17;-0.70;99.90
13585;DHT22;6863;48.402;9.994;2024-01-15T07:46:46;-0.70;99.90
13585;DHT22;6863;48.402;9.994;2024-01-15T07:49:12;-0.70;99.90
13585;DHT22;6863;48.402;9.994;2024-01-15T07:51:38;-0.60;99.90
13585;DHT22;6863;48.402;9.994;2024-01-15T07:54:05;-0.60;99.90
13585;DHT22;6863;48.402;9.994;2024-01-15T07:56:31;-0.50;99.90
13585;DHT22;6863;48.402;9.994;2024-01-15T07:58:57;-0.40;99.90
13585;DHT22;6863;48.402;9.994;2024-01-15T08:01:22;-0.40;99.20
13585;DHT22;6863;48.402;9.994;2024-01-15T08:03:48;-0.40;98.70
13585;DHT22;6863;48.402;9.994;2024-01-15T08:06:13;-0.40;98.50
13585;DHT22;6863;48.402;9.994;2024-01-15T08:08:39;-0.30;98.10
13585;DHT22;6863;48.402;9.994;2024-01-15T08:11:05;-0.30;97.30
13585;DHT22;6863;48.402;9.994;2024-01-15T08:13:30;-0.20;96.70
13585;DHT22;6863;48.402;9.994;2024-01-15T08:15:56;-0.10;95.70
13585;DHT22;6863;48.402;9.994;2024-01-15T08:18:22;0.00;95.10
13585;DHT22;6863;48.402;9.994;2024-01-15T08:20:47;-0.10;94.80
13585;DHT22;6863;48.402;9.994;2024-01-15T08:23:13;0.00;94.60
13585;DHT22;6863;48.402;9.994;2024-01-15T08:25:39;0.20;94.60
13585;DHT22;6863;48.402;9.994;2024-01-15T08:28:04;0.20;94.30
13585;DHT22;6863;48.402;9.994;2024-01-15T08:30:30;0.20;94.30
13585;DHT22;6863;48.402;9.994;2024-01-15T08:32:56;0.30;94.20
13585;DHT22;6863;48.402;9.994;2024-01-15T08:35:22;0.30;94.30
13585;DHT22;6863;48.402;9.994;2024-01-15T08:37:51;0.30;94.20
13585;DHT22;6863;48.402;9.994;2024-01-15T08:40:17;0.40;94.10
13585;DHT22;6863;48.402;9.994;2024-01-15T08:42:43;0.50;94.00
13585;DHT22;6863;48.402;9.994;2024-01-15T08:45:09;0.60;93.90
13585;DHT22;6863;48.402;9.994;2024-01-15T08:47:36;0.80;94.00
13585;DHT22;6863;48.402;9.994;2024-01-15T08:50:02;1.10;93.50
13585;DHT22;6863;48.402;9.994;2024-01-15T08:52:28;1.00;92.90
13585;DHT22;6863;48.402;9.994;2024-01-15T08:54:55;0.80;92.90
13585;DHT22;6863;48.402;9.994;2024-01-15T08:57:20;0.80;93.00
13585;DHT22;6863;48.402;9.994;2024-01-15T08:59:47;0.60;93.00
13585;DHT22;6863;48.402;9.994;2024-01-15T09:02:13;0.50;93.40
13585;DHT22;6863;48.402;9.994;2024-01-15T09:04:38;0.40;93.30
13585;DHT22;6863;48.402;9.994;2024-01-15T09:07:04;0.50;93.40
13585;DHT22;6863;48.402;9.994;2024-01-15T09:09:29;0.60;93.30
13585;DHT22;6863;48.402;9.994;2024-01-15T09:11:55;0.60;93.20
13585;DHT22;6863;48.402;9.994;2024-01-15T09:14:21;0.80;93.50
13585;DHT22;6863;48.402;9.994;2024-01-15T09:16:47;2.00;92.50
13585;DHT22;6863;48.402;9.994;2024-01-15T09:19:13;4.50;89.00
13585;DHT22;6863;48.402;9.994;2024-01-15T09:21:39;5.90;79.10
13585;DHT22;6863;48.402;9.994;2024-01-15T09:24:05;6.80;74.80
13585;DHT22;6863;48.402;9.994;2024-01-15T09:26:30;7.30;69.40
13585;DHT22;6863;48.402;9.994;2024-01-15T09:28:57;7.70;69.30
13585;DHT22;6863;48.402;9.994;2024-01-15T09:31:23;8.90;64.70
13585;DHT22;6863;48.402;9.994;2024-01-15T09:33:49;8.30;61.60
13585;DHT22;6863;48.402;9.994;2024-01-15T09:36:17;7.20;63.30
13585;DHT22;6863;48.402;9.994;2024-01-15T09:38:43;6.00;66.30
13585;DHT22;6863;48.402;9.994;2024-01-15T09:41:09;6.10;68.10
13585;DHT22;6863;48.402;9.994;2024-01-15T09:43:36;7.50;67.50
13585;DHT22;6863;48.402;9.994;2024-01-15T09:46:03;9.10;60.30
13585;DHT22;6863;48.402;9.994;2024-01-15T09:48:29;8.60;59.10
13585;DHT22;6863;48.402;9.994;2024-01-15T09:50:56;8.30;58.10
13585;DHT22;6863;48.402;9.994;2024-01-15T09:53:24;8.00;58.90
13585;DHT22;6863;48.402;9.994;2024-01-15T09:55:50;7.10;60.00
13585;DHT22;6863;48.402;9.994;2024-01-15T09:58:16;6.40;61.40
13585;DHT22;6863;48.402;9.994;2024-01-15T10:00:42;5.60;63.00
13585;DHT22;6863;48.402;9.994;2024-01-15T10:03:10;5.10;64.70
13585;DHT22;6863;48.402;9.994;2024-01-15T10:05:37;4.00;67.70
13585;DHT22;6863;48.402;9.994;2024-01-15T10:08:04;3.70;69.90
13585;DHT22;6863;48.402;9.994;2024-01-15T10:10:30;3.60;70.90
13585;DHT22;6863;48.402;9.994;2024-01-15T10:13:01;3.60;71.60
13585;DHT22;6863;48.402;9.994;2024-01-15T10:15:26;3.20;72.60
13585;DHT22;6863;48.402;9.994;2024-01-15T10:17:52;3.10;73.30
13585;DHT22;6863;48.402;9.994;2024-01-15T10:20:18;2.90;74.30
13585;DHT22;6863;48.402;9.994;2024-01-15T10:22:45;2.70;74.60
13585;DHT22;6863;48.402;9.994;2024-01-15T10:25:13;2.80;75.10
13585;DHT22;6863;48.402;9.994;2024-01-15T10:27:40;2.70;74.60
13585;DHT22;6863;48.402;9.994;2024-01-15T10:30:10;2.70;74.40
13585;DHT22;6863;48.402;9.994;2024-01-15T10:32:36;2.70;74.70
13585;DHT22;6863;48.402;9.994;2024-01-15T10:35:01;2.60;74.70
13585;DHT22;6863;48.402;9.994;2024-01-15T10:37:27;2.50;75.00
13585;DHT22;6863;48.402;9.994;2024-01-15T10:39:53;2.70;74.30
13585;DHT22;6863;48.402;9.994;2024-01-15T10:42:18;2.60;73.60
13585;DHT22;6863;48.402;9.994;2024-01-15T10:44:44;2.60;73.70
13585;DHT22;6863;48.402;9.994;2024-01-15T10:47:12;2.80;73.90
13585;DHT22;6863;48.402;9.994;2024-01-15T10:49:38;3.00;72.40
13585;DHT22;6863;48.402;9.994;2024-01-15T10:52:04;3.20;72.20
13585;DHT22;6863;48.402;9.994;2024-01-15T10:54:30;3.60;70.50
13585;DHT22;6863;48.402;9.994;2024-01-15T10:56:57;3.60;69.30
13585;DHT22;6863;48.402;9.994;2024-01-15T10:59:22;3.80;68.80
13585;DHT22;6863;48.402;9.994;2024-01-15T11:01:49;3.90;67.90
13585;DHT22;6863;48.402;9.994;2024-01-15T11:04:15;4.00;66.60
13585;DHT22;6863;48.402;9.994;2024-01-15T11:06:48;3.80;66.70
13585;DHT22;6863;48.402;9.994;2024-01-15T11:09:15;3.70;67.40
13585;DHT22;6863;48.402;9.994;2024-01-15T11:11:43;3.80;67.30
13585;DHT22;6863;48.402;9.994;2024-01-15T11:14:09;3.50;67.90
13585;DHT22;6863;48.402;9.994;2024-01-15T11:16:54;3.30;69.10
13585;DHT22;6863;48.402;9.994;2024-01-15T11:19:21;3.00;70.60
13585;DHT22;6863;48.402;9.994;2024-01-15T11:21:47;2.90;71.10
13585;DHT22;6863;48.402;9.994;2024-01-15T11:24:39;2.70;71.80
13585;DHT22;6863;48.402;9.994;2024-01-15T11:27:06;2.50;72.10
13585;DHT22;6863;48.402;9.994;2024-01-15T11:29:33;2.50;72.60
13585;DHT22;6863;48.402;9.994;2024-01-15T11:32:09;2.40;72.40
13585;DHT22;6863;48.402;9.994;2024-01-15T11:34:56;2.50;72.70
13585;DHT22;6863;48.402;9.994;2024-01-15T11:37:27;2.60;72.80
13585;DHT22;6863;48.402;9.994;2024-01-15T11:40:01;2.60;72.60
13585;DHT22;6863;48.402;9.994;2024-01-15T11:42:28;2.80;72.30
13585;DHT22;6863;48.402;9.994;2024-01-15T11:44:55;2.70;72.30
13585;DHT22;6863;48.402;9.994;2024-01-15T11:50:14;3.00;72.50
13585;DHT22;6863;48.402;9.994;2024-01-15T11:52:46;2.90;72.50
13585;DHT22;6863;48.402;9.994;2024-01-15T12:00:18;2.80;73.40
13585;DHT22;6863;48.402;9.994;2024-01-15T12:02:46;2.80;73.40
13585;DHT22;6863;48.402;9.994;2024-01-15T12:05:13;2.80;73.80
13585;DHT22;6863;48.402;9.994;2024-01-15T12:07:40;2.70;73.90
13585;DHT22;6863;48.402;9.994;2024-01-15T12:10:19;2.70;74.00
13585;DHT22;6863;48.402;9.994;2024-01-15T12:13:05;2.70;74.40
13585;DHT22;6863;48.402;9.994;2024-01-15T12:15:32;2.60;74.50
13585;DHT22;6863;48.402;9.994;2024-01-15T12:17:59;2.50;75.30
13585;DHT22;6863;48.402;9.994;2024-01-15T12:20:26;2.50;75.70
13585;DHT22;6863;48.402;9.994;2024-01-15T12:22:52;2.50;75.90
13585;DHT22;6863;48.402;9.994;2024-01-15T12:25:17;2.50;76.50
13585;DHT22;6863;48.402;9.994;2024-01-15T12:27:44;2.60;76.20
13585;DHT22;6863;48.402;9.994;2024-01-15T12:30:13;2.80;76.20
13585;DHT22;6863;48.402;9.994;2024-01-15T12:32:40;2.90;75.20
13585;DHT22;6863;48.402;9.994;2024-01-15T12:35:07;3.00;75.30
13585;DHT22;6863;48.402;9.994;2024-01-15T12:37:42;3.00;75.10
13585;DHT22;6863;48.402;9.994;2024-01-15T12:40:11;3.00;75.40
13585;DHT22;6863;48.402;9.994;2024-01-15T12:42:40;3.00;75.90
13585;DHT22;6863;48.402;9.994;2024-01-15T12:45:07;2.90;76.30
13585;DHT22;6863;48.402;9.994;2024-01-15T12:47:33;2.80;77.00
13585;DHT22;6863;48.402;9.994;2024-01-15T12:49:59;2.70;77.80
13585;DHT22;6863;48.402;9.994;2024-01-15T12:52:29;2.60;78.60
13585;DHT22;6863;48.402;9.994;2024-01-15T12:54:56;2.60;78.80
13585;DHT22;6863;48.402;9.994;2024-01-15T12:57:21;2.60;79.20
13585;DHT22;6863;48.402;9.994;2024-01-15T12:59:48;2.60;79.10
13585;DHT22;6863;48.402;9.994;2024-01-15T13:02:15;2.60;79.20
13585;DHT22;6863;48.402;9.994;2024-01-15T13:04:42;2.70;79.20
13585;DHT22;6863;48.402;9.994;2024-01-15T13:07:07;2.70;79.40
13585;DHT22;6863;48.402;9.994;2024-01-15T13:09:34;2.70;78.40
13585;DHT22;6863;48.402;9.994;2024-01-15T13:12:00;2.50;77.80
13585;DHT22;6863;48.402;9.994;2024-01-15T13:14:26;2.50;78.30
13585;DHT22;6863;48.402;9.994;2024-01-15T13:16:52;2.50;78.70
13585;DHT22;6863;48.402;9.994;2024-01-15T13:19:19;2.50;78.90
13585;DHT22;6863;48.402;9.994;2024-01-15T13:21:45;2.60;79.00
13585;DHT22;6863;48.402;9.994;2024-01-15T13:24:10;2.60;78.80
13585;DHT22;6863;48.402;9.994;2024-01-15T13:26:36;2.50;79.10
13585;DHT22;6863;48.402;9.994;2024-01-15T13:29:05;2.60;79.00
13585;DHT22;6863;48.402;9.994;2024-01-15T13:31:31;2.70;78.60
13585;DHT22;6863;48.402;9.994;2024-01-15T13:33:57;2.70;78.20
13585;DHT22;6863;48.402;9.994;2024-01-15T13:36:24;2.60;78.50
13585;DHT22;6863;48.402;9.994;2024-01-15T13:38:50;2.50;78.90
13585;DHT22;6863;48.402;9.994;2024-01-15T13:41:17;2.50;79.20
13585;DHT22;6863;48.402;9.994;2024-01-15T13:43:48;2.50;79.30
13585;DHT22;6863;48.402;9.994;2024-01-15T13:46:14;2.50;79.80
13585;DHT22;6863;48.402;9.994;2024-01-15T13:48:40;2.50;80.40
13585;DHT22;6863;48.402;9.994;2024-01-15T13:51:05;2.40;80.80
13585;DHT22;6863;48.402;9.994;2024-01-15T13:53:31;2.30;81.80
13585;DHT22;6863;48.402;9.994;2024-01-15T13:55:57;2.30;82.60
13585;DHT22;6863;48.402;9.994;2024-01-15T13:58:22;2.30;83.40
13585;DHT22;6863;48.402;9.994;2024-01-15T14:00:48;2.20;85.20
13585;DHT22;6863;48.402;9.994;2024-01-15T14:03:15;2.10;86.20
13585;DHT22;6863;48.402;9.994;2024-01-15T14:05:40;2.00;87.60
13585;DHT22;6863;48.402;9.994;2024-01-15T14:08:06;1.90;88.70
13585;DHT22;6863;48.402;9.994;2024-01-15T14:10:33;1.80;89.40
13585;DHT22;6863;48.402;9.994;2024-01-15T14:12:58;1.90;90.30
13585;DHT22;6863;48.402;9.994;2024-01-15T14:15:24;1.90;90.70
13585;DHT22;6863;48.402;9.994;2024-01-15T14:17:49;1.70;91.10
13585;DHT22;6863;48.402;9.994;2024-01-15T14:20:15;1.80;91.60
13585;DHT22;6863;48.402;9.994;2024-01-15T14:22:41;1.70;92.40
13585;DHT22;6863;48.402;9.994;2024-01-15T14:25:07;1.60;92.70
13585;DHT22;6863;48.402;9.994;2024-01-15T14:27:33;1.70;93.40
13585;DHT22;6863;48.402;9.994;2024-01-15T14:29:58;1.70;93.80
13585;DHT22;6863;48.402;9.994;2024-01-15T14:32:24;1.60;94.60
13585;DHT22;6863;48.402;9.994;2024-01-15T14:34:49;1.60;95.50
13585;DHT22;6863;48.402;9.994;2024-01-15T14:37:15;1.50;96.30
13585;DHT22;6863;48.402;9.994;2024-01-15T14:39:40;1.40;97.80
13585;DHT22;6863;48.402;9.994;2024-01-15T14:42:06;1.20;99.00
13585;DHT22;6863;48.402;9.994;2024-01-15T14:44:32;1.10;99.90
13585;DHT22;6863;48.402;9.994;2024-01-15T14:46:59;1.00;99.90
13585;DHT22;6863;48.402;9.994;2024-01-15T14:49:24;1.00;99.90
13585;DHT22;6863;48.402;9.994;2024-01-15T14:51:50;1.00;99.90
13585;DHT22;6863;48.402;9.994;2024-01-15T14:54:16;1.00;99.90
13585;DHT22;6863;48.402;9.994;2024-01-15T14:56:41;1.00;99.90
13585;DHT22;6863;48.402;9.994;2024-01-15T14:59:08;1.00;99.90
13585;DHT22;6863;48.402;9.994;2024-01-15T15:01:34;1.10;99.90
13585;DHT22;6863;48.402;9.994;2024-01-15T15:04:00;1.10;99.90
13585;DHT22;6863;48.402;9.994;2024-01-15T15:06:26;1.10;99.90
13585;DHT22;6863;48.402;9.994;2024-01-15T15:08:53;1.10;99.90
13585;DHT22;6863;48.402;9.994;2024-01-15T15:11:20;1.00;99.90
13585;DHT22;6863;48.402;9.994;2024-01-15T15:13:48;1.00;99.90
13585;DHT22;6863;48.402;9.994;2024-01-15T15:16:15;1.00;99.90
13585;DHT22;6863;48.402;9.994;2024-01-15T15:18:41;1.00;99.90
13585;DHT22;6863;48.402;9.994;2024-01-15T15:21:08;1.00;99.90
13585;DHT22;6863;48.402;9.994;2024-01-15T15:23:34;0.90;99.90
13585;DHT22;6863;48.402;9.994;2024-01-15T15:25:59;1.00;99.90
13585;DHT22;6863;48.402;9.994;2024-01-15T15:28:25;0.90;99.90
13585;DHT22;6863;48.402;9.994;2024-01-15T15:30:50;0.90;99.90
13585;DHT22;6863;48.402;9.994;2024-01-15T15:33:16;0.80;99.90
13585;DHT22;6863;48.402;9.994;2024-01-15T15:35:43;0.80;99.90
13585;DHT22;6863;48.402;9.994;2024-01-15T15:38:09;0.80;99.90
13585;DHT22;6863;48.402;9.994;2024-01-15T15:40:34;0.80;99.90
13585;DHT22;6863;48.402;9.994;2024-01-15T15:43:00;0.80;99.90
13585;DHT22;6863;48.402;9.994;2024-01-15T15:45:26;0.80;99.90
13585;DHT22;6863;48.402;9.994;2024-01-15T15:47:52;0.90;99.90
13585;DHT22;6863;48.402;9.994;2024-01-15T15:50:17;0.90;99.90
13585;DHT22;6863;48.402;9.994;2024-01-15T15:52:43;0.80;99.90
13585;DHT22;6863;48.402;9.994;2024-01-15T15:55:08;0.90;99.90